sensor_id;sensor_type;location;lat;lon;timestamp;P1;durP1;ratioP1;P2;durP2;ratioP2
65799;SDS011;52544;48.116;11.660;2023-08-17T00:01:09;10.73;;;7.35;;
65799;SDS011;52544;48.116;11.660;2023-08-17T00:03:35;10.68;;;7.93;;
65799;SDS011;52544;48.116;11.660;2023-08-17T00:06:00;9.70;;;7.43;;
65799;SDS011;52544;48.116;11.660;2023-08-17T00:08:26;14.15;;;7.95;;
65799;SDS011;52544;48.116;11.660;2023-08-17T00:10:51;11.10;;;7.75;;
65799;SDS011;52544;48.116;11.660;2023-08-17T00:13:16;10.77;;;7.20;;
65799;SDS011;52544;48.116;11.660;2023-08-17T00:15:42;14.93;;;8.15;;
65799;SDS011;52544;48.116;11.660;2023-08-17T00:18:10;10.40;;;7.32;;
65799;SDS011;52544;48.116;11.660;2023-08-17T00:20:35;11.55;;;7.65;;
65799;SDS011;52544;48.116;11.660;2023-08-17T00:23:01;11.02;;;7.88;;
65799;SDS011;52544;48.116;11.660;2023-08-17T00:25:26;12.07;;;7.93;;
65799;SDS011;52544;48.116;11.660;2023-08-17T00:27:51;9.88;;;7.32;;
65799;SDS011;52544;48.116;11.660;2023-08-17T00:30:17;10.13;;;7.72;;
65799;SDS011;52544;48.116;11.660;2023-08-17T00:32:42;10.27;;;7.53;;
65799;SDS011;52544;48.116;11.660;2023-08-17T00:35:08;11.40;;;7.70;;
65799;SDS011;52544;48.116;11.660;2023-08-17T00:37:33;10.15;;;8.20;;
65799;SDS011;52544;48.116;11.660;2023-08-17T00:39:58;12.43;;;7.78;;
65799;SDS011;52544;48.116;11.660;2023-08-17T00:42:24;12.73;;;7.13;;
65799;SDS011;52544;48.116;11.660;2023-08-17T00:44:49;12.70;;;7.82;;
65799;SDS011;52544;48.116;11.660;2023-08-17T00:47:15;11.50;;;7.78;;
65799;SDS011;52544;48.116;11.660;2023-08-17T00:49:40;13.27;;;8.02;;
65799;SDS011;52544;48.116;11.660;2023-08-17T00:52:06;12.18;;;7.80;;
65799;SDS011;52544;48.116;11.660;2023-08-17T00:54:31;10.63;;;7.78;;
65799;SDS011;52544;48.116;11.660;2023-08-17T00:56:57;14.63;;;8.90;;
65799;SDS011;52544;48.116;11.660;2023-08-17T00:59:24;12.05;;;8.07;;
65799;SDS011;52544;48.116;11.660;2023-08-17T01:01:49;11.15;;;7.78;;
65799;SDS011;52544;48.116;11.660;2023-08-17T01:04:15;10.10;;;7.18;;
65799;SDS011;52544;48.116;11.660;2023-08-17T01:06:40;11.13;;;7.70;;
65799;SDS011;52544;48.116;11.660;2023-08-17T01:09:06;9.27;;;6.90;;
65799;SDS011;52544;48.116;11.660;2023-08-17T01:11:34;10.48;;;7.60;;
65799;SDS011;52544;48.116;11.660;2023-08-17T01:14:10;12.45;;;7.68;;
65799;SDS011;52544;48.116;11.660;2023-08-17T01:17:03;14.15;;;7.85;;
65799;SDS011;52544;48.116;11.660;2023-08-17T01:19:36;11.93;;;7.75;;
65799;SDS011;52544;48.116;11.660;2023-08-17T01:22:04;10.45;;;7.18;;
65799;SDS011;52544;48.116;11.660;2023-08-17T01:24:30;10.93;;;6.93;;
65799;SDS011;52544;48.116;11.660;2023-08-17T01:26:56;9.75;;;6.88;;
65799;SDS011;52544;48.116;11.660;2023-08-17T01:29:21;10.05;;;7.53;;
65799;SDS011;52544;48.116;11.660;2023-08-17T01:31:50;10.50;;;7.57;;
65799;SDS011;52544;48.116;11.660;2023-08-17T01:34:23;10.75;;;7.20;;
65799;SDS011;52544;48.116;11.660;2023-08-17T01:36:51;13.80;;;7.93;;
65799;SDS011;52544;48.116;11.660;2023-08-17T01:39:22;11.45;;;7.57;;
65799;SDS011;52544;48.116;11.660;2023-08-17T01:41:51;11.43;;;7.72;;
65799;SDS011;52544;48.116;11.660;2023-08-17T01:44:20;11.40;;;7.53;;
65799;SDS011;52544;48.116;11.660;2023-08-17T01:46:46;11.40;;;7.35;;
65799;SDS011;52544;48.116;11.660;2023-08-17T01:49:11;14.60;;;7.55;;
65799;SDS011;52544;48.116;11.660;2023-08-17T01:51:36;9.82;;;6.97;;
65799;SDS011;52544;48.116;11.660;2023-08-17T01:54:02;10.88;;;7.15;;
65799;SDS011;52544;48.116;11.660;2023-08-17T01:56:27;14.82;;;7.53;;
65799;SDS011;52544;48.116;11.660;2023-08-17T01:58:53;9.95;;;7.03;;
65799;SDS011;52544;48.116;11.660;2023-08-17T02:01:18;12.57;;;7.53;;
65799;SDS011;52544;48.116;11.660;2023-08-17T02:03:43;9.30;;;6.80;;
65799;SDS011;52544;48.116;11.660;2023-08-17T02:06:09;11.35;;;7.80;;
65799;SDS011;52544;48.116;11.660;2023-08-17T02:08:35;12.10;;;7.60;;
65799;SDS011;52544;48.116;11.660;2023-08-17T02:11:02;11.00;;;7.80;;
65799;SDS011;52544;48.116;11.660;2023-08-17T02:13:27;10.73;;;6.80;;
65799;SDS011;52544;48.116;11.660;2023-08-17T02:15:53;11.20;;;7.10;;
65799;SDS011;52544;48.116;11.660;2023-08-17T02:18:18;11.98;;;7.75;;
65799;SDS011;52544;48.116;11.660;2023-08-17T02:20:43;11.85;;;8.00;;
65799;SDS011;52544;48.116;11.660;2023-08-17T02:23:09;10.57;;;7.82;;
65799;SDS011;52544;48.116;11.660;2023-08-17T02:25:37;12.32;;;7.85;;
65799;SDS011;52544;48.116;11.660;2023-08-17T02:28:03;9.77;;;7.32;;
65799;SDS011;52544;48.116;11.660;2023-08-17T02:30:29;11.15;;;7.57;;
65799;SDS011;52544;48.116;11.660;2023-08-17T02:32:55;10.00;;;7.40;;
65799;SDS011;52544;48.116;11.660;2023-08-17T02:35:21;10.70;;;8.00;;
65799;SDS011;52544;48.116;11.660;2023-08-17T02:37:46;10.00;;;7.93;;
65799;SDS011;52544;48.116;11.660;2023-08-17T02:40:11;9.57;;;7.50;;
65799;SDS011;52544;48.116;11.660;2023-08-17T02:42:37;9.57;;;7.40;;
65799;SDS011;52544;48.116;11.660;2023-08-17T02:45:05;11.45;;;7.95;;
65799;SDS011;52544;48.116;11.660;2023-08-17T02:47:31;8.77;;;6.85;;
65799;SDS011;52544;48.116;11.660;2023-08-17T02:49:56;11.95;;;7.40;;
65799;SDS011;52544;48.116;11.660;2023-08-17T02:52:22;11.07;;;7.05;;
65799;SDS011;52544;48.116;11.660;2023-08-17T02:54:47;11.13;;;7.88;;
65799;SDS011;52544;48.116;11.660;2023-08-17T02:57:13;11.55;;;7.70;;
65799;SDS011;52544;48.116;11.660;2023-08-17T02:59:38;9.73;;;7.50;;
65799;SDS011;52544;48.116;11.660;2023-08-17T03:02:04;14.38;;;8.13;;
65799;SDS011;52544;48.116;11.660;2023-08-17T03:04:29;11.13;;;8.05;;
65799;SDS011;52544;48.116;11.660;2023-08-17T03:06:54;10.43;;;7.85;;
65799;SDS011;52544;48.116;11.660;2023-08-17T03:09:20;11.30;;;7.35;;
65799;SDS011;52544;48.116;11.660;2023-08-17T03:11:45;11.55;;;7.85;;
65799;SDS011;52544;48.116;11.660;2023-08-17T03:14:10;10.80;;;8.07;;
65799;SDS011;52544;48.116;11.660;2023-08-17T03:16:36;15.15;;;8.52;;
65799;SDS011;52544;48.116;11.660;2023-08-17T03:19:01;12.52;;;7.97;;
65799;SDS011;52544;48.116;11.660;2023-08-17T03:21:28;9.40;;;7.32;;
65799;SDS011;52544;48.116;11.660;2023-08-17T03:23:53;9.18;;;7.00;;
65799;SDS011;52544;48.116;11.660;2023-08-17T03:26:19;13.52;;;7.78;;
65799;SDS011;52544;48.116;11.660;2023-08-17T03:28:44;10.40;;;7.30;;
65799;SDS011;52544;48.116;11.660;2023-08-17T03:31:10;14.38;;;7.55;;
65799;SDS011;52544;48.116;11.660;2023-08-17T03:33:35;11.88;;;7.85;;
65799;SDS011;52544;48.116;11.660;2023-08-17T03:36:01;11.73;;;8.48;;
65799;SDS011;52544;48.116;11.660;2023-08-17T03:38:28;8.65;;;7.15;;
65799;SDS011;52544;48.116;11.660;2023-08-17T03:40:53;11.10;;;7.72;;
65799;SDS011;52544;48.116;11.660;2023-08-17T03:43:19;11.75;;;8.18;;
65799;SDS011;52544;48.116;11.660;2023-08-17T03:45:44;11.07;;;8.20;;
65799;SDS011;52544;48.116;11.660;2023-08-17T03:48:10;11.25;;;8.05;;
65799;SDS011;52544;48.116;11.660;2023-08-17T03:50:35;13.40;;;8.35;;
65799;SDS011;52544;48.116;11.660;2023-08-17T03:53:01;11.45;;;7.78;;
65799;SDS011;52544;48.116;11.660;2023-08-17T03:55:26;11.45;;;7.85;;
65799;SDS011;52544;48.116;11.660;2023-08-17T03:57:52;13.52;;;8.15;;
65799;SDS011;52544;48.116;11.660;2023-08-17T04:00:17;11.75;;;8.20;;
65799;SDS011;52544;48.116;11.660;2023-08-17T04:02:43;11.60;;;8.02;;
65799;SDS011;52544;48.116;11.660;2023-08-17T04:05:08;12.68;;;7.90;;
65799;SDS011;52544;48.116;11.660;2023-08-17T04:07:34;11.25;;;7.65;;
65799;SDS011;52544;48.116;11.660;2023-08-17T04:09:59;13.13;;;8.20;;
65799;SDS011;52544;48.116;11.660;2023-08-17T04:12:25;12.73;;;8.38;;
65799;SDS011;52544;48.116;11.660;2023-08-17T04:14:50;10.95;;;7.75;;
65799;SDS011;52544;48.116;11.660;2023-08-17T04:17:16;11.85;;;8.50;;
65799;SDS011;52544;48.116;11.660;2023-08-17T04:19:41;10.80;;;7.53;;
65799;SDS011;52544;48.116;11.660;2023-08-17T04:22:06;13.27;;;7.97;;
65799;SDS011;52544;48.116;11.660;2023-08-17T04:24:32;11.00;;;8.00;;
65799;SDS011;52544;48.116;11.660;2023-08-17T04:26:57;10.43;;;8.05;;
65799;SDS011;52544;48.116;11.660;2023-08-17T04:29:23;12.85;;;8.65;;
65799;SDS011;52544;48.116;11.660;2023-08-17T04:31:48;11.57;;;8.15;;
65799;SDS011;52544;48.116;11.660;2023-08-17T04:34:13;13.05;;;8.63;;
65799;SDS011;52544;48.116;11.660;2023-08-17T04:36:39;12.70;;;8.80;;
65799;SDS011;52544;48.116;11.660;2023-08-17T04:39:04;13.88;;;8.32;;
65799;SDS011;52544;48.116;11.660;2023-08-17T04:41:30;10.95;;;8.25;;
65799;SDS011;52544;48.116;11.660;2023-08-17T04:43:56;15.63;;;7.88;;
65799;SDS011;52544;48.116;11.660;2023-08-17T04:46:21;15.88;;;8.82;;
65799;SDS011;52544;48.116;11.660;2023-08-17T04:48:47;13.82;;;8.43;;
65799;SDS011;52544;48.116;11.660;2023-08-17T04:51:12;13.43;;;8.88;;
65799;SDS011;52544;48.116;11.660;2023-08-17T04:53:38;12.75;;;8.23;;
65799;SDS011;52544;48.116;11.660;2023-08-17T04:56:03;13.55;;;8.00;;
65799;SDS011;52544;48.116;11.660;2023-08-17T04:58:29;12.73;;;8.05;;
65799;SDS011;52544;48.116;11.660;2023-08-17T05:00:55;14.43;;;8.25;;
65799;SDS011;52544;48.116;11.660;2023-08-17T05:03:20;12.18;;;8.57;;
65799;SDS011;52544;48.116;11.660;2023-08-17T05:05:46;13.10;;;8.48;;
65799;SDS011;52544;48.116;11.660;2023-08-17T05:08:11;12.98;;;8.55;;
65799;SDS011;52544;48.116;11.660;2023-08-17T05:10:37;12.88;;;8.95;;
65799;SDS011;52544;48.116;11.660;2023-08-17T05:13:03;14.32;;;8.80;;
65799;SDS011;52544;48.116;11.660;2023-08-17T05:15:28;12.10;;;8.60;;
65799;SDS011;52544;48.116;11.660;2023-08-17T05:17:53;11.73;;;8.18;;
65799;SDS011;52544;48.116;11.660;2023-08-17T05:20:21;12.05;;;8.68;;
65799;SDS011;52544;48.116;11.660;2023-08-17T05:22:46;14.80;;;8.68;;
65799;SDS011;52544;48.116;11.660;2023-08-17T05:25:12;13.20;;;8.65;;
65799;SDS011;52544;48.116;11.660;2023-08-17T05:27:38;18.50;;;9.40;;
65799;SDS011;52544;48.116;11.660;2023-08-17T05:30:03;12.68;;;8.38;;
65799;SDS011;52544;48.116;11.660;2023-08-17T05:32:29;16.13;;;8.88;;
65799;SDS011;52544;48.116;11.660;2023-08-17T05:34:54;14.05;;;8.73;;
65799;SDS011;52544;48.116;11.660;2023-08-17T05:37:20;12.68;;;9.43;;
65799;SDS011;52544;48.116;11.660;2023-08-17T05:39:45;12.95;;;8.65;;
65799;SDS011;52544;48.116;11.660;2023-08-17T05:42:11;12.43;;;8.45;;
65799;SDS011;52544;48.116;11.660;2023-08-17T05:44:36;12.90;;;8.52;;
65799;SDS011;52544;48.116;11.660;2023-08-17T05:47:01;12.15;;;8.70;;
65799;SDS011;52544;48.116;11.660;2023-08-17T05:49:27;11.88;;;8.43;;
65799;SDS011;52544;48.116;11.660;2023-08-17T05:51:52;11.50;;;8.40;;
65799;SDS011;52544;48.116;11.660;2023-08-17T05:54:18;13.35;;;8.90;;
65799;SDS011;52544;48.116;11.660;2023-08-17T05:56:43;10.73;;;8.10;;
65799;SDS011;52544;48.116;11.660;2023-08-17T05:59:12;15.90;;;8.65;;
65799;SDS011;52544;48.116;11.660;2023-08-17T06:01:38;14.95;;;8.70;;
65799;SDS011;52544;48.116;11.660;2023-08-17T06:04:04;12.98;;;8.75;;
65799;SDS011;52544;48.116;11.660;2023-08-17T06:06:30;12.40;;;8.20;;
65799;SDS011;52544;48.116;11.660;2023-08-17T06:08:55;11.98;;;7.80;;
65799;SDS011;52544;48.116;11.660;2023-08-17T06:11:20;11.80;;;8.07;;
65799;SDS011;52544;48.116;11.660;2023-08-17T06:13:46;11.50;;;7.80;;
65799;SDS011;52544;48.116;11.660;2023-08-17T06:16:11;13.93;;;8.00;;
65799;SDS011;52544;48.116;11.660;2023-08-17T06:18:36;12.35;;;8.57;;
65799;SDS011;52544;48.116;11.660;2023-08-17T06:21:02;12.25;;;8.75;;
65799;SDS011;52544;48.116;11.660;2023-08-17T06:23:27;12.98;;;8.57;;
65799;SDS011;52544;48.116;11.660;2023-08-17T06:25:56;14.05;;;8.70;;
65799;SDS011;52544;48.116;11.660;2023-08-17T06:28:23;14.15;;;8.88;;
65799;SDS011;52544;48.116;11.660;2023-08-17T06:30:51;12.93;;;8.73;;
65799;SDS011;52544;48.116;11.660;2023-08-17T06:33:18;11.25;;;8.15;;
65799;SDS011;52544;48.116;11.660;2023-08-17T06:35:44;16.67;;;8.70;;
65799;SDS011;52544;48.116;11.660;2023-08-17T06:38:09;12.25;;;8.30;;
65799;SDS011;52544;48.116;11.660;2023-08-17T06:40:34;10.50;;;7.78;;
65799;SDS011;52544;48.116;11.660;2023-08-17T06:43:00;11.25;;;8.07;;
65799;SDS011;52544;48.116;11.660;2023-08-17T06:45:25;11.88;;;7.15;;
65799;SDS011;52544;48.116;11.660;2023-08-17T06:47:51;11.50;;;7.35;;
65799;SDS011;52544;48.116;11.660;2023-08-17T06:50:16;10.65;;;7.15;;
65799;SDS011;52544;48.116;11.660;2023-08-17T06:52:42;15.60;;;7.38;;
65799;SDS011;52544;48.116;11.660;2023-08-17T06:55:07;10.98;;;7.10;;
65799;SDS011;52544;48.116;11.660;2023-08-17T06:57:33;14.88;;;9.20;;
65799;SDS011;52544;48.116;11.660;2023-08-17T06:59:58;13.40;;;8.95;;
65799;SDS011;52544;48.116;11.660;2023-08-17T07:02:24;9.10;;;7.15;;
65799;SDS011;52544;48.116;11.660;2023-08-17T07:04:49;12.60;;;7.18;;
65799;SDS011;52544;48.116;11.660;2023-08-17T07:07:15;10.45;;;6.93;;
65799;SDS011;52544;48.116;11.660;2023-08-17T07:09:40;10.95;;;7.50;;
65799;SDS011;52544;48.116;11.660;2023-08-17T07:12:06;14.27;;;6.38;;
65799;SDS011;52544;48.116;11.660;2023-08-17T07:14:31;10.02;;;6.90;;
65799;SDS011;52544;48.116;11.660;2023-08-17T07:16:58;11.60;;;6.50;;
65799;SDS011;52544;48.116;11.660;2023-08-17T07:19:24;8.18;;;6.80;;
65799;SDS011;52544;48.116;11.660;2023-08-17T07:21:49;10.90;;;6.93;;
65799;SDS011;52544;48.116;11.660;2023-08-17T07:24:15;9.80;;;6.70;;
65799;SDS011;52544;48.116;11.660;2023-08-17T07:26:41;12.00;;;7.00;;
65799;SDS011;52544;48.116;11.660;2023-08-17T07:29:06;11.50;;;8.57;;
65799;SDS011;52544;48.116;11.660;2023-08-17T07:31:32;16.15;;;10.40;;
65799;SDS011;52544;48.116;11.660;2023-08-17T07:33:59;10.52;;;8.15;;
65799;SDS011;52544;48.116;11.660;2023-08-17T07:36:25;8.75;;;7.00;;
65799;SDS011;52544;48.116;11.660;2023-08-17T07:38:50;11.55;;;7.38;;
65799;SDS011;52544;48.116;11.660;2023-08-17T07:41:15;12.85;;;6.93;;
65799;SDS011;52544;48.116;11.660;2023-08-17T07:43:41;13.73;;;6.65;;
65799;SDS011;52544;48.116;11.660;2023-08-17T07:46:06;9.32;;;6.97;;
65799;SDS011;52544;48.116;11.660;2023-08-17T07:48:32;8.05;;;6.63;;
65799;SDS011;52544;48.116;11.660;2023-08-17T07:50:59;11.18;;;7.50;;
65799;SDS011;52544;48.116;11.660;2023-08-17T07:53:25;10.38;;;7.18;;
65799;SDS011;52544;48.116;11.660;2023-08-17T07:55:50;8.50;;;6.40;;
65799;SDS011;52544;48.116;11.660;2023-08-17T07:58:16;10.73;;;7.35;;
65799;SDS011;52544;48.116;11.660;2023-08-17T08:00:41;15.18;;;8.70;;
65799;SDS011;52544;48.116;11.660;2023-08-17T08:03:07;11.55;;;7.15;;
65799;SDS011;52544;48.116;11.660;2023-08-17T08:05:32;10.55;;;7.28;;
65799;SDS011;52544;48.116;11.660;2023-08-17T08:07:58;9.43;;;6.47;;
65799;SDS011;52544;48.116;11.660;2023-08-17T08:10:23;12.23;;;6.72;;
65799;SDS011;52544;48.116;11.660;2023-08-17T08:12:48;12.10;;;6.82;;
65799;SDS011;52544;48.116;11.660;2023-08-17T08:15:14;10.15;;;6.90;;
65799;SDS011;52544;48.116;11.660;2023-08-17T08:17:40;11.68;;;6.63;;
65799;SDS011;52544;48.116;11.660;2023-08-17T08:20:06;9.48;;;6.68;;
65799;SDS011;52544;48.116;11.660;2023-08-17T08:22:32;13.50;;;7.57;;
65799;SDS011;52544;48.116;11.660;2023-08-17T08:24:57;8.82;;;6.55;;
65799;SDS011;52544;48.116;11.660;2023-08-17T08:27:23;8.77;;;6.70;;
65799;SDS011;52544;48.116;11.660;2023-08-17T08:29:49;7.95;;;6.80;;
65799;SDS011;52544;48.116;11.660;2023-08-17T08:32:18;9.88;;;6.93;;
65799;SDS011;52544;48.116;11.660;2023-08-17T08:34:43;8.95;;;6.40;;
65799;SDS011;52544;48.116;11.660;2023-08-17T08:37:09;9.30;;;6.50;;
65799;SDS011;52544;48.116;11.660;2023-08-17T08:39:47;9.15;;;6.45;;
65799;SDS011;52544;48.116;11.660;2023-08-17T08:42:20;8.45;;;6.40;;
65799;SDS011;52544;48.116;11.660;2023-08-17T08:44:47;9.45;;;6.97;;
65799;SDS011;52544;48.116;11.660;2023-08-17T08:47:13;9.02;;;7.20;;
65799;SDS011;52544;48.116;11.660;2023-08-17T08:49:39;9.52;;;6.82;;
65799;SDS011;52544;48.116;11.660;2023-08-17T08:52:08;7.82;;;6.47;;
65799;SDS011;52544;48.116;11.660;2023-08-17T08:54:41;9.30;;;5.97;;
65799;SDS011;52544;48.116;11.660;2023-08-17T08:57:13;8.18;;;6.90;;
65799;SDS011;52544;48.116;11.660;2023-08-17T08:59:41;9.20;;;6.47;;
65799;SDS011;52544;48.116;11.660;2023-08-17T09:02:13;10.23;;;6.28;;
65799;SDS011;52544;48.116;11.660;2023-08-17T09:04:44;8.88;;;6.07;;
65799;SDS011;52544;48.116;11.660;2023-08-17T09:07:10;8.70;;;6.05;;
65799;SDS011;52544;48.116;11.660;2023-08-17T09:09:37;8.18;;;5.47;;
65799;SDS011;52544;48.116;11.660;2023-08-17T09:12:03;6.93;;;5.65;;
65799;SDS011;52544;48.116;11.660;2023-08-17T09:14:32;9.38;;;5.90;;
65799;SDS011;52544;48.116;11.660;2023-08-17T09:16:57;8.48;;;6.07;;
65799;SDS011;52544;48.116;11.660;2023-08-17T09:19:24;6.72;;;5.57;;
65799;SDS011;52544;48.116;11.660;2023-08-17T09:21:49;6.50;;;5.60;;
65799;SDS011;52544;48.116;11.660;2023-08-17T09:24:15;10.38;;;6.00;;
65799;SDS011;52544;48.116;11.660;2023-08-17T09:26:40;7.43;;;5.55;;
65799;SDS011;52544;48.116;11.660;2023-08-17T09:29:18;8.27;;;5.38;;
65799;SDS011;52544;48.116;11.660;2023-08-17T09:31:45;7.85;;;5.55;;
65799;SDS011;52544;48.116;11.660;2023-08-17T09:34:11;6.85;;;5.22;;
65799;SDS011;52544;48.116;11.660;2023-08-17T09:36:36;7.65;;;5.90;;
65799;SDS011;52544;48.116;11.660;2023-08-17T09:39:02;6.75;;;5.45;;
65799;SDS011;52544;48.116;11.660;2023-08-17T09:41:28;12.02;;;6.10;;
65799;SDS011;52544;48.116;11.660;2023-08-17T09:43:54;8.90;;;5.50;;
65799;SDS011;52544;48.116;11.660;2023-08-17T09:46:20;7.35;;;5.57;;
65799;SDS011;52544;48.116;11.660;2023-08-17T09:48:46;9.82;;;5.70;;
65799;SDS011;52544;48.116;11.660;2023-08-17T09:51:15;9.13;;;5.63;;
65799;SDS011;52544;48.116;11.660;2023-08-17T09:53:42;13.60;;;5.68;;
65799;SDS011;52544;48.116;11.660;2023-08-17T09:56:08;13.82;;;6.80;;
65799;SDS011;52544;48.116;11.660;2023-08-17T09:58:36;11.85;;;6.50;;
65799;SDS011;52544;48.116;11.660;2023-08-17T10:01:05;9.32;;;5.90;;
65799;SDS011;52544;48.116;11.660;2023-08-17T10:03:34;11.30;;;6.15;;
65799;SDS011;52544;48.116;11.660;2023-08-17T10:06:06;10.73;;;6.65;;
65799;SDS011;52544;48.116;11.660;2023-08-17T10:08:45;11.60;;;6.28;;
65799;SDS011;52544;48.116;11.660;2023-08-17T10:11:13;9.02;;;6.15;;
65799;SDS011;52544;48.116;11.660;2023-08-17T10:16:44;6.65;;;5.47;;
65799;SDS011;52544;48.116;11.660;2023-08-17T10:19:15;8.85;;;5.70;;
65799;SDS011;52544;48.116;11.660;2023-08-17T10:21:53;7.78;;;5.80;;
65799;SDS011;52544;48.116;11.660;2023-08-17T10:24:24;6.85;;;6.07;;
65799;SDS011;52544;48.116;11.660;2023-08-17T10:26:50;7.53;;;6.55;;
65799;SDS011;52544;48.116;11.660;2023-08-17T10:29:16;7.25;;;5.78;;
65799;SDS011;52544;48.116;11.660;2023-08-17T10:31:45;6.03;;;5.28;;
65799;SDS011;52544;48.116;11.660;2023-08-17T10:34:12;6.22;;;5.60;;
65799;SDS011;52544;48.116;11.660;2023-08-17T10:36:38;7.05;;;5.68;;
65799;SDS011;52544;48.116;11.660;2023-08-17T10:39:20;9.93;;;5.95;;
65799;SDS011;52544;48.116;11.660;2023-08-17T10:41:51;11.30;;;6.03;;
65799;SDS011;52544;48.116;11.660;2023-08-17T10:44:17;7.20;;;6.20;;
65799;SDS011;52544;48.116;11.660;2023-08-17T10:47:18;9.68;;;6.10;;
65799;SDS011;52544;48.116;11.660;2023-08-17T10:52:24;6.43;;;5.65;;
65799;SDS011;52544;48.116;11.660;2023-08-17T10:54:51;9.43;;;6.05;;
65799;SDS011;52544;48.116;11.660;2023-08-17T10:57:33;8.80;;;6.10;;
65799;SDS011;52544;48.116;11.660;2023-08-17T11:02:33;8.00;;;6.53;;
65799;SDS011;52544;48.116;11.660;2023-08-17T11:04:58;8.40;;;6.40;;
65799;SDS011;52544;48.116;11.660;2023-08-17T11:07:23;10.00;;;6.30;;
65799;SDS011;52544;48.116;11.660;2023-08-17T11:09:53;8.55;;;6.00;;
65799;SDS011;52544;48.116;11.660;2023-08-17T11:12:24;9.98;;;5.90;;
65799;SDS011;52544;48.116;11.660;2023-08-17T11:14:50;8.35;;;6.63;;
65799;SDS011;52544;48.116;11.660;2023-08-17T11:17:16;8.20;;;6.63;;
65799;SDS011;52544;48.116;11.660;2023-08-17T11:19:41;9.70;;;6.97;;
65799;SDS011;52544;48.116;11.660;2023-08-17T11:22:07;7.53;;;6.38;;
65799;SDS011;52544;48.116;11.660;2023-08-17T11:24:33;7.53;;;6.40;;
65799;SDS011;52544;48.116;11.660;2023-08-17T11:26:58;9.70;;;6.32;;
65799;SDS011;52544;48.116;11.660;2023-08-17T11:29:24;8.98;;;6.88;;
65799;SDS011;52544;48.116;11.660;2023-08-17T11:31:50;11.68;;;6.95;;
65799;SDS011;52544;48.116;11.660;2023-08-17T11:34:15;11.88;;;7.10;;
65799;SDS011;52544;48.116;11.660;2023-08-17T11:36:41;11.95;;;6.82;;
65799;SDS011;52544;48.116;11.660;2023-08-17T11:39:06;11.85;;;6.25;;
65799;SDS011;52544;48.116;11.660;2023-08-17T11:41:33;8.70;;;6.93;;
65799;SDS011;52544;48.116;11.660;2023-08-17T11:43:59;7.95;;;7.00;;
65799;SDS011;52544;48.116;11.660;2023-08-17T11:46:25;8.88;;;6.78;;
65799;SDS011;52544;48.116;11.660;2023-08-17T11:48:50;9.38;;;7.32;;
65799;SDS011;52544;48.116;11.660;2023-08-17T11:51:27;11.07;;;7.20;;
65799;SDS011;52544;48.116;11.660;2023-08-17T11:53:58;9.25;;;6.82;;
65799;SDS011;52544;48.116;11.660;2023-08-17T11:56:23;8.90;;;7.10;;
65799;SDS011;52544;48.116;11.660;2023-08-17T11:58:49;9.32;;;7.40;;
65799;SDS011;52544;48.116;11.660;2023-08-17T12:01:14;8.60;;;7.32;;
65799;SDS011;52544;48.116;11.660;2023-08-17T12:03:43;9.98;;;7.10;;
65799;SDS011;52544;48.116;11.660;2023-08-17T12:06:09;9.25;;;7.32;;
65799;SDS011;52544;48.116;11.660;2023-08-17T12:08:37;9.85;;;7.57;;
65799;SDS011;52544;48.116;11.660;2023-08-17T12:11:03;7.80;;;6.63;;
65799;SDS011;52544;48.116;11.660;2023-08-17T12:13:29;9.45;;;7.85;;
65799;SDS011;52544;48.116;11.660;2023-08-17T12:16:01;9.82;;;7.75;;
65799;SDS011;52544;48.116;11.660;2023-08-17T12:18:26;8.68;;;7.78;;
65799;SDS011;52544;48.116;11.660;2023-08-17T12:20:52;8.80;;;7.38;;
65799;SDS011;52544;48.116;11.660;2023-08-17T12:23:18;8.80;;;7.32;;
65799;SDS011;52544;48.116;11.660;2023-08-17T12:25:43;10.38;;;7.43;;
65799;SDS011;52544;48.116;11.660;2023-08-17T12:28:12;9.98;;;6.97;;
65799;SDS011;52544;48.116;11.660;2023-08-17T12:30:37;8.98;;;7.20;;
65799;SDS011;52544;48.116;11.660;2023-08-17T12:33:03;9.95;;;7.30;;
65799;SDS011;52544;48.116;11.660;2023-08-17T12:35:29;8.48;;;7.03;;
65799;SDS011;52544;48.116;11.660;2023-08-17T12:37:56;8.98;;;6.82;;
65799;SDS011;52544;48.116;11.660;2023-08-17T12:40:22;11.25;;;6.53;;
65799;SDS011;52544;48.116;11.660;2023-08-17T12:42:48;8.45;;;7.05;;
65799;SDS011;52544;48.116;11.660;2023-08-17T12:45:14;10.15;;;7.20;;
65799;SDS011;52544;48.116;11.660;2023-08-17T12:47:40;8.25;;;6.97;;
65799;SDS011;52544;48.116;11.660;2023-08-17T12:50:06;11.18;;;7.18;;
65799;SDS011;52544;48.116;11.660;2023-08-17T12:52:31;10.60;;;7.03;;
65799;SDS011;52544;48.116;11.660;2023-08-17T12:54:57;9.45;;;6.65;;
65799;SDS011;52544;48.116;11.660;2023-08-17T12:57:22;8.55;;;6.70;;
65799;SDS011;52544;48.116;11.660;2023-08-17T12:59:48;6.70;;;5.90;;
65799;SDS011;52544;48.116;11.660;2023-08-17T13:02:13;8.05;;;6.97;;
65799;SDS011;52544;48.116;11.660;2023-08-17T13:04:39;8.18;;;6.97;;
65799;SDS011;52544;48.116;11.660;2023-08-17T13:07:05;8.27;;;6.80;;
65799;SDS011;52544;48.116;11.660;2023-08-17T13:09:30;8.93;;;6.70;;
65799;SDS011;52544;48.116;11.660;2023-08-17T13:11:56;9.45;;;6.35;;
65799;SDS011;52544;48.116;11.660;2023-08-17T13:14:21;7.20;;;6.22;;
65799;SDS011;52544;48.116;11.660;2023-08-17T13:16:48;8.48;;;6.22;;
65799;SDS011;52544;48.116;11.660;2023-08-17T13:19:14;7.53;;;6.07;;
65799;SDS011;52544;48.116;11.660;2023-08-17T13:21:40;9.38;;;6.50;;
65799;SDS011;52544;48.116;11.660;2023-08-17T13:24:05;9.75;;;7.60;;
65799;SDS011;52544;48.116;11.660;2023-08-17T13:26:31;9.32;;;6.00;;
65799;SDS011;52544;48.116;11.660;2023-08-17T13:28:57;7.22;;;6.10;;
65799;SDS011;52544;48.116;11.660;2023-08-17T13:31:22;7.82;;;5.95;;
65799;SDS011;52544;48.116;11.660;2023-08-17T13:33:48;7.57;;;5.90;;
65799;SDS011;52544;48.116;11.660;2023-08-17T13:36:13;7.43;;;5.82;;
65799;SDS011;52544;48.116;11.660;2023-08-17T13:38:38;8.30;;;6.00;;
65799;SDS011;52544;48.116;11.660;2023-08-17T13:41:04;8.43;;;6.97;;
65799;SDS011;52544;48.116;11.660;2023-08-17T13:43:29;10.38;;;5.70;;
65799;SDS011;52544;48.116;11.660;2023-08-17T13:45:55;8.88;;;5.85;;
65799;SDS011;52544;48.116;11.660;2023-08-17T13:48:20;7.90;;;5.68;;
65799;SDS011;52544;48.116;11.660;2023-08-17T13:50:46;8.45;;;6.20;;
65799;SDS011;52544;48.116;11.660;2023-08-17T13:53:11;7.38;;;6.20;;
65799;SDS011;52544;48.116;11.660;2023-08-17T13:55:37;8.55;;;6.65;;
65799;SDS011;52544;48.116;11.660;2023-08-17T13:58:02;9.70;;;6.47;;
65799;SDS011;52544;48.116;11.660;2023-08-17T14:00:27;10.70;;;6.40;;
65799;SDS011;52544;48.116;11.660;2023-08-17T14:02:53;10.68;;;6.68;;
65799;SDS011;52544;48.116;11.660;2023-08-17T14:05:19;11.48;;;6.53;;
65799;SDS011;52544;48.116;11.660;2023-08-17T14:07:44;8.48;;;6.70;;
65799;SDS011;52544;48.116;11.660;2023-08-17T14:10:10;11.20;;;7.07;;
65799;SDS011;52544;48.116;11.660;2023-08-17T14:12:35;8.25;;;6.55;;
65799;SDS011;52544;48.116;11.660;2023-08-17T14:15:01;9.82;;;7.00;;
65799;SDS011;52544;48.116;11.660;2023-08-17T14:17:26;9.00;;;6.22;;
65799;SDS011;52544;48.116;11.660;2023-08-17T14:19:52;11.95;;;7.22;;
65799;SDS011;52544;48.116;11.660;2023-08-17T14:22:17;8.38;;;6.80;;
65799;SDS011;52544;48.116;11.660;2023-08-17T14:24:43;9.98;;;7.93;;
65799;SDS011;52544;48.116;11.660;2023-08-17T14:27:08;10.00;;;7.65;;
65799;SDS011;52544;48.116;11.660;2023-08-17T14:29:34;9.00;;;7.28;;